Time;durP1;ratioP1;P1;durP2;ratioP2;P2;SDS_P1;SDS_P2;PMS_P1;PMS_P2;Temp;Humidity;BMP_temperature;BMP_pressure;BME280_temperature;BME280_humidity;BME280_pressure;Samples;Min_cycle;Max_cycle;Signal;HPM_P1;HPM_P2
2022/04/21 00:00:29;;;;;;;29.97;20.53;;;8.90;99.90;;;;;;4964439;28;20211;-69
2022/04/21 00:02:56;;;;;;;34.90;21.70;;;8.90;99.90;;;;;;4967241;28;20220;-70
2022/04/21 00:05:23;;;;;;;31.73;21.40;;;9.00;99.90;;;;;;4970849;28;20322;-70
2022/04/21 00:07:50;;;;;;;33.00;21.13;;;8.90;99.90;;;;;;4974395;28;20761;-70
2022/04/21 00:10:18;;;;;;;32.90;21.13;;;9.00;99.90;;;;;;4963981;28;20247;-70
2022/04/21 00:12:45;;;;;;;33.33;20.43;;;9.00;99.90;;;;;;4957065;28;20299;-70
2022/04/21 00:15:13;;;;;;;34.80;20.93;;;8.90;99.90;;;;;;4962830;28;20276;-70
2022/04/21 00:17:41;;;;;;;36.90;22.03;;;9.00;99.90;;;;;;4974158;28;20240;-71
2022/04/21 00:20:09;;;;;;;32.73;21.57;;;8.90;99.90;;;;;;4966178;28;20299;-71
2022/04/21 00:25:21;;;;;;;32.87;21.80;;;8.90;99.90;;;;;;4958045;28;20200;-71
2022/04/21 00:27:48;;;;;;;31.63;20.23;;;8.90;99.90;;;;;;4957084;28;20296;-70
2022/04/21 00:30:18;;;;;;;35.03;20.23;;;8.90;99.90;;;;;;4956170;28;20214;-69
2022/04/21 00:32:45;;;;;;;33.80;20.87;;;8.90;99.90;;;;;;4957809;28;20960;-69
2022/04/21 00:35:17;;;;;;;38.50;20.60;;;8.90;99.90;;;;;;4969207;28;20219;-71
2022/04/21 00:37:49;;;;;;;36.20;19.97;;;8.90;99.90;;;;;;4957978;28;20682;-70
2022/04/21 00:40:17;;;;;;;32.60;19.20;;;8.90;99.90;;;;;;4958006;28;20726;-69
2022/04/21 00:42:45;;;;;;;34.67;19.43;;;8.90;99.90;;;;;;4956372;28;20296;-69
2022/04/21 00:45:12;;;;;;;30.73;20.27;;;8.90;99.90;;;;;;4956842;28;20271;-69
2022/04/21 00:47:43;;;;;;;38.03;19.60;;;8.90;99.90;;;;;;4968234;28;20232;-69
2022/04/21 00:50:16;;;;;;;33.00;19.97;;;8.90;99.90;;;;;;4973446;28;20620;-68
2022/04/21 00:52:44;;;;;;;34.50;19.63;;;8.90;99.90;;;;;;4957538;28;20209;-69
2022/04/21 00:55:12;;;;;;;31.93;19.77;;;8.90;99.90;;;;;;4963178;28;20300;-69
2022/04/21 00:57:41;;;;;;;36.80;19.90;;;8.90;99.90;;;;;;4957702;28;20205;-69
2022/04/21 01:00:12;;;;;;;31.77;20.00;;;8.90;99.90;;;;;;4957323;28;20325;-70
2022/04/21 01:02:47;;;;;;;30.77;18.73;;;8.90;99.90;;;;;;4955878;28;20223;-69
2022/04/21 01:05:14;;;;;;;31.10;19.87;;;8.90;99.90;;;;;;4965449;28;20266;-70
2022/04/21 01:07:41;;;;;;;31.20;18.50;;;8.90;99.90;;;;;;4961826;28;20246;-69
2022/04/21 01:10:09;;;;;;;29.77;19.87;;;8.90;99.90;;;;;;4957417;28;20268;-69
2022/04/21 01:12:37;;;;;;;29.53;19.30;;;8.90;99.90;;;;;;4962540;28;20213;-70
2022/04/21 01:15:04;;;;;;;35.57;18.67;;;9.00;99.90;;;;;;4973973;28;20236;-70
2022/04/21 01:17:32;;;;;;;28.87;17.83;;;9.00;99.90;;;;;;4960449;28;20270;-69
2022/04/21 01:20:01;;;;;;;31.33;18.73;;;9.00;99.90;;;;;;4962345;28;20209;-70
2022/04/21 01:22:30;;;;;;;30.67;18.83;;;9.00;99.90;;;;;;4965961;28;20315;-69
2022/04/21 01:24:57;;;;;;;33.23;20.20;;;9.00;99.90;;;;;;4954585;28;20300;-69
2022/04/21 01:27:28;;;;;;;34.27;19.67;;;9.10;99.90;;;;;;4956237;28;20251;-70
2022/04/21 01:29:55;;;;;;;33.30;19.13;;;9.10;99.90;;;;;;4955182;28;20662;-69
2022/04/21 01:32:22;;;;;;;32.77;19.17;;;9.10;99.90;;;;;;4966396;28;20210;-70
2022/04/21 01:34:52;;;;;;;28.90;18.40;;;9.20;99.90;;;;;;4969218;28;20558;-70
2022/04/21 01:42:49;;;;;;;27.83;16.30;;;9.30;99.90;;;;;;4956299;28;20208;-70
2022/04/21 01:45:17;;;;;;;30.67;17.67;;;9.30;99.90;;;;;;4956179;28;20245;-70
2022/04/21 01:47:44;;;;;;;26.23;16.10;;;9.30;99.90;;;;;;4968815;28;20228;-71
2022/04/21 01:50:11;;;;;;;30.10;17.57;;;9.30;99.90;;;;;;4973792;28;20642;-69
2022/04/21 01:52:38;;;;;;;25.20;16.50;;;9.20;99.90;;;;;;4960680;28;20244;-70
2022/04/21 01:55:08;;;;;;;25.00;16.73;;;9.20;99.90;;;;;;4958203;28;20573;-71
2022/04/21 01:57:35;;;;;;;27.57;17.37;;;9.20;99.90;;;;;;4958074;28;20228;-70
2022/04/21 02:00:03;;;;;;;25.33;15.70;;;9.30;99.90;;;;;;4957621;28;20216;-69
2022/04/21 02:02:32;;;;;;;29.33;17.23;;;9.30;99.90;;;;;;4967287;28;20465;-69
2022/04/21 02:05:00;;;;;;;24.47;16.17;;;9.20;99.90;;;;;;4960902;28;20208;-69
2022/04/21 02:07:27;;;;;;;27.23;16.07;;;9.20;99.90;;;;;;4969225;28;20312;-70
2022/04/21 02:09:54;;;;;;;23.23;15.57;;;9.20;99.90;;;;;;4962879;28;20227;-69
2022/04/21 02:12:23;;;;;;;21.07;15.27;;;9.20;99.90;;;;;;4956798;28;20222;-69
2022/04/21 02:14:51;;;;;;;22.50;14.77;;;9.40;99.90;;;;;;4966703;28;20259;-69
2022/04/21 02:17:19;;;;;;;23.20;15.90;;;9.30;99.90;;;;;;4965681;28;20592;-69
2022/04/21 02:19:46;;;;;;;19.03;14.20;;;9.30;99.90;;;;;;4964787;28;20545;-69
2022/04/21 02:22:13;;;;;;;21.13;14.10;;;9.30;99.90;;;;;;4967292;28;20229;-70
2022/04/21 02:24:40;;;;;;;19.37;13.10;;;9.30;99.90;;;;;;4972572;28;20267;-70
2022/04/21 02:27:07;;;;;;;21.80;13.27;;;9.30;99.90;;;;;;4960128;28;20256;-70
2022/04/21 02:29:35;;;;;;;19.97;13.13;;;9.40;99.90;;;;;;4955155;28;20247;-69
2022/04/21 02:32:02;;;;;;;19.77;13.07;;;9.40;99.90;;;;;;4955373;28;20292;-69
2022/04/21 02:34:30;;;;;;;16.87;11.10;;;9.40;99.90;;;;;;4957785;28;20259;-69
2022/04/21 02:36:57;;;;;;;19.47;12.70;;;9.40;99.90;;;;;;4965048;28;20219;-69
2022/04/21 02:39:27;;;;;;;19.80;12.80;;;9.40;99.90;;;;;;4958100;28;20208;-69
2022/04/21 02:41:54;;;;;;;15.87;11.70;;;9.50;99.90;;;;;;4957421;28;20299;-69
2022/04/21 02:44:20;;;;;;;15.47;11.00;;;9.40;99.90;;;;;;4960475;28;20204;-68
2022/04/21 02:46:49;;;;;;;17.10;11.60;;;9.40;99.90;;;;;;4954998;28;20229;-69
2022/04/21 02:49:16;;;;;;;17.57;11.57;;;9.40;99.90;;;;;;4975250;28;20248;-70
2022/04/21 02:51:44;;;;;;;15.87;11.37;;;9.40;99.90;;;;;;4960706;28;20648;-71
2022/04/21 02:59:41;;;;;;;12.77;9.37;;;9.50;99.90;;;;;;4964737;28;20211;-69
2022/04/21 03:02:09;;;;;;;12.37;9.40;;;9.50;99.90;;;;;;4955165;28;20252;-69
2022/04/21 03:04:36;;;;;;;11.13;9.03;;;9.50;99.90;;;;;;4960069;28;20219;-70
2022/04/21 03:07:03;;;;;;;11.87;9.17;;;9.50;99.90;;;;;;4968632;28;20606;-69
2022/04/21 03:09:32;;;;;;;11.10;9.23;;;9.50;99.90;;;;;;4959608;28;20295;-70
2022/04/21 03:12:02;;;;;;;11.83;9.70;;;9.50;99.90;;;;;;4968686;28;20212;-69
2022/04/21 03:14:29;;;;;;;11.03;9.00;;;9.50;99.90;;;;;;4963952;28;20659;-69
2022/04/21 03:16:55;;;;;;;9.50;8.07;;;9.50;99.90;;;;;;4954013;28;20592;-69
2022/04/21 03:19:24;;;;;;;11.50;8.53;;;9.50;99.90;;;;;;4954793;28;20741;-70
2022/04/21 03:24:35;;;;;;;9.93;8.27;;;9.50;99.90;;;;;;4957342;28;20201;-69
2022/04/21 03:27:03;;;;;;;9.70;8.10;;;9.50;99.90;;;;;;4953870;28;20233;-69
2022/04/21 03:29:30;;;;;;;9.63;7.63;;;9.40;99.90;;;;;;4954000;28;20221;-70
2022/04/21 03:31:57;;;;;;;10.67;8.23;;;9.40;99.90;;;;;;4954404;28;20296;-69
2022/04/21 03:34:25;;;;;;;9.13;7.87;;;9.40;99.90;;;;;;4953030;28;20321;-70
2022/04/21 03:36:52;;;;;;;10.03;8.07;;;9.40;99.90;;;;;;4960867;28;20213;-69
2022/04/21 03:39:22;;;;;;;10.43;8.67;;;9.40;99.90;;;;;;4963663;28;20220;-70
2022/04/21 03:41:53;;;;;;;10.10;8.20;;;9.30;99.90;;;;;;4960104;28;20666;-70
2022/04/21 03:44:20;;;;;;;10.77;8.77;;;9.30;99.90;;;;;;4966738;28;20219;-69
2022/04/21 03:46:47;;;;;;;10.50;8.87;;;9.30;99.90;;;;;;4953154;28;20272;-70
2022/04/21 03:49:14;;;;;;;12.37;9.43;;;9.30;99.90;;;;;;4974373;28;20208;-69
2022/04/21 03:51:43;;;;;;;12.87;9.53;;;9.30;99.90;;;;;;4976968;28;20283;-70
2022/04/21 03:54:10;;;;;;;9.90;8.63;;;9.30;99.90;;;;;;4962978;28;20646;-69
2022/04/21 03:56:37;;;;;;;10.67;8.97;;;9.30;99.90;;;;;;4960349;28;20643;-69
2022/04/21 03:59:05;;;;;;;11.73;8.50;;;9.30;99.90;;;;;;4958668;28;20285;-69
2022/04/21 04:01:32;;;;;;;11.30;8.77;;;9.30;99.90;;;;;;4970524;28;20227;-69
2022/04/21 04:03:59;;;;;;;12.37;8.87;;;9.30;99.90;;;;;;4957887;28;20271;-69
2022/04/21 04:11:55;;;;;;;11.13;8.53;;;9.30;99.90;;;;;;4962079;28;20227;-69
2022/04/21 04:14:22;;;;;;;9.83;8.60;;;9.30;99.90;;;;;;4969082;28;20209;-68
2022/04/21 04:16:49;;;;;;;11.03;9.23;;;9.30;99.90;;;;;;4959464;28;20214;-68
2022/04/21 04:19:16;;;;;;;11.27;8.63;;;9.30;99.90;;;;;;4957563;28;20697;-69
2022/04/21 04:21:43;;;;;;;8.93;7.67;;;9.30;99.90;;;;;;4961700;28;20570;-69
2022/04/21 04:24:11;;;;;;;9.20;8.17;;;9.30;99.90;;;;;;4960929;28;20213;-69
2022/04/21 04:26:38;;;;;;;9.50;8.50;;;9.30;99.90;;;;;;4957511;28;20243;-69
2022/04/21 04:29:05;;;;;;;10.57;8.17;;;9.30;99.90;;;;;;4967169;28;20682;-70
2022/04/21 04:31:33;;;;;;;9.90;8.10;;;9.30;99.90;;;;;;4963068;28;20615;-69
2022/04/21 04:34:00;;;;;;;11.33;8.90;;;9.30;99.90;;;;;;4963403;28;20208;-70
2022/04/21 04:36:28;;;;;;;11.17;8.23;;;9.30;99.90;;;;;;4961528;28;20217;-69
2022/04/21 04:38:55;;;;;;;9.37;7.73;;;9.30;99.90;;;;;;4967520;28;20224;-69
2022/04/21 04:44:08;;;;;;;9.70;7.70;;;9.30;99.90;;;;;;4962368;28;20206;-69
2022/04/21 04:46:40;;;;;;;10.43;7.77;;;9.30;99.90;;;;;;4956665;28;20609;-68
2022/04/21 04:49:08;;;;;;;8.73;7.43;;;9.30;99.90;;;;;;4971198;28;20211;-69
2022/04/21 04:51:37;;;;;;;9.73;7.53;;;9.20;99.90;;;;;;4960761;28;20300;-69
2022/04/21 04:54:05;;;;;;;9.60;7.43;;;9.30;99.90;;;;;;4962325;28;20589;-69
2022/04/21 04:56:34;;;;;;;8.70;7.33;;;9.20;99.90;;;;;;4959261;28;20276;-69
2022/04/21 04:59:01;;;;;;;7.60;6.37;;;9.30;99.90;;;;;;4957143;28;20297;-69
2022/04/21 05:01:31;;;;;;;9.50;7.73;;;9.30;99.90;;;;;;4967362;28;20212;-69
2022/04/21 05:04:02;;;;;;;9.80;7.53;;;9.30;99.90;;;;;;4956731;28;20296;-69
2022/04/21 05:06:29;;;;;;;9.43;7.83;;;9.30;99.90;;;;;;4965170;28;20654;-69
2022/04/21 05:08:57;;;;;;;10.13;7.50;;;9.30;99.90;;;;;;4976533;28;20804;-69
2022/04/21 05:11:25;;;;;;;8.43;6.77;;;9.30;99.90;;;;;;4964291;28;20213;-70
2022/04/21 05:13:54;;;;;;;10.03;7.37;;;9.30;99.90;;;;;;4968554;28;20231;-70
2022/04/21 05:16:22;;;;;;;9.33;7.20;;;9.30;99.90;;;;;;4965393;28;20213;-70
2022/04/21 05:18:49;;;;;;;8.53;6.47;;;9.30;99.90;;;;;;4962518;28;20701;-69
2022/04/21 05:21:19;;;;;;;10.80;6.90;;;9.30;99.90;;;;;;4971526;28;20847;-69
2022/04/21 05:23:48;;;;;;;7.23;6.40;;;9.30;99.90;;;;;;4960217;28;20205;-69
2022/04/21 05:26:16;;;;;;;8.53;6.73;;;9.30;99.90;;;;;;4960844;28;20299;-69
2022/04/21 05:28:44;;;;;;;9.73;7.13;;;9.30;99.90;;;;;;4966595;28;20228;-71
2022/04/21 05:31:12;;;;;;;8.97;7.00;;;9.30;99.90;;;;;;4960149;28;20648;-70
2022/04/21 05:33:40;;;;;;;8.73;7.13;;;9.40;99.90;;;;;;4962667;28;20205;-69
2022/04/21 05:36:08;;;;;;;8.77;6.60;;;9.30;99.90;;;;;;4970349;28;20240;-69
2022/04/21 05:38:37;;;;;;;7.70;6.20;;;9.40;99.90;;;;;;4962809;28;20237;-69
2022/04/21 05:41:04;;;;;;;8.10;6.43;;;9.40;99.90;;;;;;4962805;28;20313;-68
2022/04/21 05:43:40;;;;;;;11.20;7.10;;;9.40;99.90;;;;;;4966721;28;20235;-69
2022/04/21 05:46:07;;;;;;;9.10;6.67;;;9.40;99.90;;;;;;4969720;28;20519;-71
2022/04/21 05:48:37;;;;;;;6.67;5.97;;;9.40;99.90;;;;;;4979693;28;20234;-70
2022/04/21 05:51:04;;;;;;;9.43;6.37;;;9.40;99.90;;;;;;4968500;28;20205;-69
2022/04/21 05:53:36;;;;;;;7.27;6.50;;;9.40;99.90;;;;;;4964089;28;20214;-67
2022/04/21 05:56:05;;;;;;;8.40;6.83;;;9.40;99.90;;;;;;4974050;28;20650;-66
2022/04/21 05:58:32;;;;;;;10.87;6.70;;;9.40;99.90;;;;;;4965255;28;20197;-68
2022/04/21 06:01:00;;;;;;;8.03;6.97;;;9.40;99.90;;;;;;4967112;28;20639;-65
2022/04/21 06:03:27;;;;;;;10.10;7.10;;;9.50;99.90;;;;;;4949820;28;21452;-66
2022/04/21 06:05:55;;;;;;;7.97;6.73;;;9.40;99.90;;;;;;4965587;28;20244;-68
2022/04/21 06:08:22;;;;;;;9.00;7.17;;;9.50;99.90;;;;;;4958241;28;20253;-68
2022/04/21 06:10:49;;;;;;;8.80;6.97;;;9.50;99.90;;;;;;4960033;28;20300;-67
2022/04/21 06:13:16;;;;;;;8.70;7.37;;;9.50;99.90;;;;;;4962449;28;20821;-67
2022/04/21 06:15:43;;;;;;;10.23;7.77;;;9.50;99.90;;;;;;4958488;28;20395;-67
2022/04/21 06:18:10;;;;;;;7.97;6.80;;;9.60;99.90;;;;;;4962496;28;20214;-67
2022/04/21 06:20:37;;;;;;;10.07;7.50;;;9.60;99.90;;;;;;4965550;28;20228;-67
2022/04/21 06:23:06;;;;;;;9.13;7.27;;;9.50;99.90;;;;;;4972668;28;20410;-68
2022/04/21 06:25:34;;;;;;;9.43;7.00;;;9.60;99.90;;;;;;4956945;28;20243;-67
2022/04/21 06:28:01;;;;;;;9.00;7.27;;;9.60;99.90;;;;;;4961297;28;20309;-67
2022/04/21 06:30:28;;;;;;;10.13;7.70;;;9.60;99.90;;;;;;4964058;28;20530;-68
2022/04/21 06:32:54;;;;;;;8.00;6.43;;;9.60;99.90;;;;;;4963640;28;20215;-68
2022/04/21 06:35:21;;;;;;;8.50;6.30;;;9.70;99.90;;;;;;4965530;28;20343;-66
2022/04/21 06:37:48;;;;;;;11.97;7.63;;;9.70;99.90;;;;;;4954943;28;20205;-67
2022/04/21 06:40:17;;;;;;;9.20;7.40;;;9.70;99.90;;;;;;4963907;28;20235;-68
2022/04/21 06:42:43;;;;;;;8.37;7.03;;;9.80;99.90;;;;;;4967092;28;20216;-68
2022/04/21 06:48:05;;;;;;;7.63;6.77;;;9.80;99.90;;;;;;4970905;28;20275;-67
2022/04/21 06:50:33;;;;;;;9.20;7.60;;;9.80;99.90;;;;;;4962741;28;20208;-65
2022/04/21 06:53:00;;;;;;;8.43;7.50;;;9.90;99.90;;;;;;4967679;28;20215;-67
2022/04/21 06:55:29;;;;;;;11.07;8.00;;;9.90;99.90;;;;;;4966436;28;20291;-67
2022/04/21 06:57:56;;;;;;;8.70;7.30;;;9.90;99.90;;;;;;4963179;28;20205;-67
2022/04/21 07:00:25;;;;;;;8.75;7.85;;;10.00;99.90;;;;;;4960487;28;20559;-67
2022/04/21 07:02:53;;;;;;;10.53;7.67;;;10.00;99.90;;;;;;4964854;28;20208;-66
2022/04/21 07:05:22;;;;;;;10.50;7.50;;;10.00;99.90;;;;;;4959543;28;20208;-66
2022/04/21 07:07:49;;;;;;;21.57;11.53;;;10.10;99.90;;;;;;4962456;28;20232;-70
2022/04/21 07:10:17;;;;;;;12.40;8.00;;;10.10;99.90;;;;;;4963208;28;21935;-70
2022/04/21 07:12:46;;;;;;;10.47;7.90;;;10.10;99.90;;;;;;4956305;28;20209;-69
2022/04/21 07:15:13;;;;;;;13.43;8.13;;;10.20;99.90;;;;;;4962170;28;20209;-69
2022/04/21 07:17:40;;;;;;;8.83;7.13;;;10.20;99.90;;;;;;4963106;28;20208;-69
2022/04/21 07:20:09;;;;;;;8.73;7.10;;;10.20;99.90;;;;;;4963193;28;20211;-69
2022/04/21 07:22:36;;;;;;;10.00;6.87;;;10.20;99.90;;;;;;4965896;28;20300;-70
2022/04/21 07:25:05;;;;;;;8.10;7.23;;;10.30;99.90;;;;;;4965118;28;20284;-69
2022/04/21 07:27:33;;;;;;;8.17;7.37;;;10.30;99.90;;;;;;4973571;28;20299;-71
2022/04/21 07:30:02;;;;;;;11.00;7.37;;;10.30;99.90;;;;;;4969750;28;20756;-69
2022/04/21 07:32:29;;;;;;;10.00;7.13;;;10.30;99.90;;;;;;4968183;28;20217;-70
2022/04/21 07:34:55;;;;;;;11.63;7.77;;;10.30;99.90;;;;;;4977099;28;20307;-70
2022/04/21 07:37:22;;;;;;;10.07;6.70;;;10.20;99.90;;;;;;4965969;28;20217;-70
2022/04/21 07:39:49;;;;;;;9.40;6.97;;;10.20;99.90;;;;;;4971583;28;20259;-69
2022/04/21 07:42:16;;;;;;;11.17;8.00;;;10.20;99.90;;;;;;4960382;28;20297;-68
2022/04/21 07:44:43;;;;;;;9.27;8.27;;;10.20;99.90;;;;;;4962934;28;20213;-69
2022/04/21 07:47:11;;;;;;;11.27;9.13;;;10.20;99.90;;;;;;4976073;28;20231;-67
2022/04/21 07:49:48;;;;;;;10.70;9.53;;;10.20;99.90;;;;;;4982697;28;20681;-69
2022/04/21 07:55:13;;;;;;;16.63;12.47;;;10.30;99.90;;;;;;4972944;28;20207;-68
2022/04/21 07:57:41;;;;;;;9.13;8.23;;;10.40;99.90;;;;;;4979344;28;20270;-68
2022/04/21 08:00:09;;;;;;;8.50;7.20;;;10.40;99.90;;;;;;4973647;28;20208;-68
2022/04/21 08:02:39;;;;;;;8.77;6.07;;;10.40;99.90;;;;;;4977261;28;20200;-68
2022/04/21 08:05:06;;;;;;;9.57;7.80;;;10.40;99.90;;;;;;4977107;28;20219;-68
2022/04/21 08:07:34;;;;;;;8.07;5.97;;;10.40;99.90;;;;;;4973062;28;20722;-68
2022/04/21 08:10:01;;;;;;;7.93;6.63;;;10.40;99.90;;;;;;4967089;28;20212;-69
2022/04/21 08:12:29;;;;;;;8.40;6.67;;;10.50;99.90;;;;;;4960980;28;20205;-67
2022/04/21 08:14:55;;;;;;;7.93;6.97;;;10.50;99.90;;;;;;4977915;28;20205;-68
2022/04/21 08:17:22;;;;;;;9.77;6.90;;;10.60;99.90;;;;;;4964339;28;20310;-68
2022/04/21 08:19:51;;;;;;;6.47;5.63;;;10.70;99.90;;;;;;4957749;28;20248;-69
2022/04/21 08:22:19;;;;;;;8.60;6.30;;;10.80;99.90;;;;;;4970957;28;20697;-68
2022/04/21 08:32:58;;;;;;;9.97;6.63;;;11.20;99.90;;;;;;4958820;28;20208;-68
2022/04/21 08:35:26;;;;;;;8.20;6.10;;;11.30;99.90;;;;;;4958339;28;20205;-68
2022/04/21 08:37:53;;;;;;;7.70;6.90;;;11.40;99.90;;;;;;4957555;28;20247;-68
2022/04/21 08:40:22;;;;;;;8.33;6.83;;;11.50;99.90;;;;;;4958640;28;20283;-70
2022/04/21 08:42:52;;;;;;;7.53;6.10;;;11.60;99.90;;;;;;4959455;28;20229;-70
2022/04/21 08:45:19;;;;;;;7.63;6.33;;;11.70;99.90;;;;;;4944500;29;20240;-68
2022/04/21 08:47:49;;;;;;;11.70;6.57;;;11.80;99.90;;;;;;4959899;28;20356;-66
2022/04/21 08:50:16;;;;;;;8.10;7.00;;;11.90;99.90;;;;;;4967155;28;20618;-69
2022/04/21 08:52:45;;;;;;;7.00;6.17;;;12.00;99.90;;;;;;4964795;28;20212;-68
2022/04/21 08:55:12;;;;;;;6.87;5.90;;;12.20;99.90;;;;;;4970321;28;20237;-69
2022/04/21 08:57:38;;;;;;;9.13;5.77;;;12.20;99.90;;;;;;4958945;28;20206;-68
2022/04/21 09:00:08;;;;;;;13.40;8.13;;;12.30;99.90;;;;;;4966837;28;20300;-69
2022/04/21 09:02:37;;;;;;;7.10;6.40;;;12.30;99.90;;;;;;4957345;28;20215;-68
2022/04/21 09:05:04;;;;;;;7.83;6.50;;;12.30;99.90;;;;;;4956408;28;20209;-69
2022/04/21 09:07:31;;;;;;;7.53;6.13;;;12.30;99.90;;;;;;4973092;28;20204;-69
2022/04/21 09:10:06;;;;;;;7.73;6.43;;;12.30;99.90;;;;;;4964985;28;20564;-68
2022/04/21 09:12:34;;;;;;;7.30;5.67;;;12.40;99.90;;;;;;4959223;28;20667;-68
2022/04/21 09:15:07;;;;;;;8.30;6.03;;;12.50;99.90;;;;;;4976077;28;20216;-68
2022/04/21 09:17:40;;;;;;;8.20;6.93;;;12.60;99.90;;;;;;4965611;28;20208;-68
2022/04/21 09:20:08;;;;;;;9.40;6.97;;;12.60;99.90;;;;;;4957013;28;20524;-68
2022/04/21 09:22:35;;;;;;;7.50;6.40;;;12.70;99.90;;;;;;4956257;28;20701;-69
2022/04/21 09:25:04;;;;;;;7.23;6.27;;;12.70;99.90;;;;;;4956484;28;20300;-67
2022/04/21 09:27:42;;;;;;;7.87;6.37;;;12.70;99.90;;;;;;4968867;28;20215;-68
2022/04/21 09:30:12;;;;;;;6.47;5.60;;;12.80;99.90;;;;;;4960976;28;20311;-69
2022/04/21 09:32:41;;;;;;;7.17;5.70;;;12.80;99.90;;;;;;4956545;28;20216;-68
2022/04/21 09:35:09;;;;;;;6.93;5.40;;;12.80;99.90;;;;;;4956866;28;20214;-69
2022/04/21 09:37:50;;;;;;;6.50;5.47;;;12.80;99.90;;;;;;4957482;28;20213;-69
2022/04/21 09:40:24;;;;;;;5.20;4.70;;;12.80;99.90;;;;;;4957328;28;20229;-69
2022/04/21 09:42:56;;;;;;;7.33;4.80;;;12.80;99.90;;;;;;4940961;29;20208;-68
2022/04/21 09:48:23;;;;;;;7.20;4.90;;;12.80;99.90;;;;;;4960878;28;20892;-69
2022/04/21 09:50:53;;;;;;;6.67;5.23;;;12.80;99.90;;;;;;4975754;28;20676;-68
2022/04/21 09:53:23;;;;;;;7.27;5.50;;;12.90;99.90;;;;;;4957999;28;20206;-70
2022/04/21 09:55:52;;;;;;;6.27;5.50;;;12.90;99.90;;;;;;4962852;28;20302;-69
2022/04/21 09:58:19;;;;;;;5.67;4.80;;;12.90;99.90;;;;;;4968776;28;20220;-70
2022/04/21 10:00:47;;;;;;;5.67;5.07;;;12.80;99.90;;;;;;4966890;28;20212;-70
2022/04/21 10:03:14;;;;;;;5.23;4.53;;;12.80;99.90;;;;;;4974601;28;20251;-69
2022/04/21 10:05:42;;;;;;;6.03;4.80;;;12.70;99.90;;;;;;4960750;28;20209;-69
2022/04/21 10:08:11;;;;;;;6.77;5.10;;;12.70;99.90;;;;;;4958840;28;20223;-70
2022/04/21 10:10:39;;;;;;;5.50;5.00;;;12.70;99.90;;;;;;4958045;28;20240;-71
2022/04/21 10:13:08;;;;;;;6.60;4.80;;;12.70;99.90;;;;;;4960177;28;20573;-70
2022/04/21 10:15:36;;;;;;;14.63;7.00;;;12.70;99.90;;;;;;4961936;28;20582;-71
2022/04/21 10:18:06;;;;;;;8.53;5.57;;;12.70;99.90;;;;;;4956220;28;20213;-70
2022/04/21 10:20:33;;;;;;;6.30;5.00;;;12.70;99.90;;;;;;4964899;28;20220;-72
2022/04/21 10:23:02;;;;;;;7.60;4.60;;;12.80;99.90;;;;;;4963907;28;20259;-71
2022/04/21 10:25:37;;;;;;;5.47;4.77;;;12.80;99.90;;;;;;4964816;28;20695;-70
2022/04/21 10:28:36;;;;;;;5.47;4.40;;;12.80;99.90;;;;;;4959558;28;20291;-71
2022/04/21 10:31:29;;;;;;;7.40;5.27;;;12.80;99.90;;;;;;4962488;28;20555;-71
2022/04/21 10:33:58;;;;;;;6.10;4.97;;;12.90;99.90;;;;;;4964576;28;20581;-69
2022/04/21 10:36:36;;;;;;;8.20;5.33;;;12.90;99.90;;;;;;4958309;28;20228;-70
2022/04/21 10:39:22;;;;;;;6.97;4.77;;;13.10;99.90;;;;;;4964538;28;20227;-70
2022/04/21 10:42:05;;;;;;;7.27;4.50;;;13.10;99.90;;;;;;4968343;28;20294;-68
2022/04/21 10:44:41;;;;;;;6.33;4.13;;;13.20;99.90;;;;;;4954711;28;20201;-70
2022/04/21 10:47:32;;;;;;;5.93;4.60;;;13.30;99.90;;;;;;4955275;28;20204;-69
2022/04/21 10:50:00;;;;;;;4.60;4.20;;;13.40;99.90;;;;;;4983029;28;20212;-69
2022/04/21 10:58:47;;;;;;;6.00;4.43;;;13.70;99.90;;;;;;4953341;28;20205;-70
2022/04/21 11:01:20;;;;;;;4.57;4.10;;;13.80;99.90;;;;;;4955850;28;20236;-69
2022/04/21 11:04:04;;;;;;;4.73;3.97;;;13.90;99.90;;;;;;4969106;28;20292;-70
2022/04/21 11:06:40;;;;;;;4.93;4.33;;;13.90;99.90;;;;;;4946114;28;20319;-69
2022/04/21 11:09:07;;;;;;;8.83;4.27;;;14.00;99.90;;;;;;4958518;28;20604;-68
2022/04/21 11:11:47;;;;;;;6.00;4.37;;;14.00;99.90;;;;;;4962628;28;20224;-69
2022/04/21 11:14:31;;;;;;;6.70;4.57;;;14.10;99.90;;;;;;4973801;28;20220;-67
2022/04/21 11:17:00;;;;;;;6.27;4.40;;;14.10;99.90;;;;;;4965080;28;20674;-69
2022/04/21 11:19:32;;;;;;;5.00;4.50;;;14.10;99.90;;;;;;4974228;28;20240;-69
2022/04/21 11:22:00;;;;;;;5.43;4.40;;;14.20;99.90;;;;;;4960410;28;20230;-69
2022/04/21 11:24:28;;;;;;;6.07;4.97;;;14.20;99.90;;;;;;4962571;28;20213;-71
2022/04/21 11:26:55;;;;;;;5.63;4.80;;;14.20;99.90;;;;;;4959820;28;20216;-70
2022/04/21 11:29:22;;;;;;;7.77;4.60;;;14.20;99.90;;;;;;4957714;28;20650;-69
2022/04/21 11:31:54;;;;;;;4.90;3.77;;;14.30;99.90;;;;;;4958677;28;20205;-69
2022/04/21 11:34:24;;;;;;;6.53;4.60;;;14.30;99.90;;;;;;4955711;28;20201;-70
2022/04/21 11:36:56;;;;;;;6.27;4.43;;;14.40;99.90;;;;;;4963359;28;20213;-70
2022/04/21 11:39:23;;;;;;;4.87;4.40;;;14.40;99.90;;;;;;4966741;28;20677;-70
2022/04/21 11:41:52;;;;;;;5.20;4.40;;;14.50;99.90;;;;;;4971999;28;20251;-70
2022/04/21 11:44:22;;;;;;;6.00;4.20;;;14.50;99.90;;;;;;4963247;28;20220;-71
2022/04/21 11:46:49;;;;;;;5.50;4.50;;;14.50;99.90;;;;;;4962815;28;20205;-71
2022/04/21 11:49:16;;;;;;;10.43;4.73;;;14.50;99.90;;;;;;4966516;28;20229;-70
2022/04/21 11:51:45;;;;;;;5.80;4.80;;;14.50;99.90;;;;;;4963425;28;20209;-69
2022/04/21 11:54:12;;;;;;;6.70;4.67;;;14.50;99.90;;;;;;4971143;28;20209;-71
2022/04/21 11:56:40;;;;;;;5.33;4.70;;;14.50;99.90;;;;;;4964979;28;20273;-68
2022/04/21 11:59:08;;;;;;;7.53;4.70;;;14.50;99.90;;;;;;4968780;28;20241;-71
2022/04/21 12:07:15;;;;;;;8.70;4.60;;;14.50;99.90;;;;;;4973772;28;20244;-70
2022/04/21 12:09:44;;;;;;;9.63;4.83;;;14.50;99.90;;;;;;4967468;28;20213;-70
2022/04/21 12:12:12;;;;;;;8.73;5.23;;;14.50;99.90;;;;;;4963341;28;20311;-69
2022/04/21 12:14:41;;;;;;;7.67;5.40;;;14.60;99.90;;;;;;4960035;28;20219;-69
2022/04/21 12:17:08;;;;;;;6.80;4.20;;;14.60;99.90;;;;;;4958452;28;20233;-71
2022/04/21 12:19:38;;;;;;;9.50;5.60;;;14.50;99.90;;;;;;4958333;28;20667;-71
2022/04/21 12:22:08;;;;;;;6.00;4.37;;;14.50;99.90;;;;;;4969020;28;20229;-70
2022/04/21 12:24:36;;;;;;;6.73;4.70;;;14.50;99.90;;;;;;4969311;28;20232;-70
2022/04/21 12:27:05;;;;;;;6.13;5.07;;;14.40;99.90;;;;;;4959574;28;20209;-70
2022/04/21 12:29:45;;;;;;;4.90;4.40;;;14.40;99.90;;;;;;4968981;28;20316;-71
2022/04/21 12:32:12;;;;;;;6.03;4.80;;;14.40;99.90;;;;;;4962377;28;20259;-70
2022/04/21 12:34:40;;;;;;;5.27;4.60;;;14.50;99.90;;;;;;4959030;28;20220;-70
2022/04/21 12:37:09;;;;;;;6.23;5.00;;;14.60;99.90;;;;;;4958666;28;20296;-69
2022/04/21 12:39:37;;;;;;;8.30;5.37;;;14.60;99.90;;;;;;4958443;28;20244;-69
2022/04/21 12:42:05;;;;;;;6.70;5.17;;;14.70;99.90;;;;;;4958337;28;20247;-70
2022/04/21 12:44:33;;;;;;;6.67;4.90;;;14.80;99.90;;;;;;4969000;28;20638;-71
2022/04/21 12:47:02;;;;;;;6.77;5.00;;;14.80;99.90;;;;;;4963090;28;20679;-71
2022/04/21 12:49:55;;;;;;;5.90;4.70;;;14.90;99.90;;;;;;4962474;28;20324;-73
2022/04/21 12:52:45;;;;;;;5.37;4.57;;;14.90;99.90;;;;;;4971367;28;20264;-70
2022/04/21 12:55:23;;;;;;;5.83;4.80;;;15.00;99.90;;;;;;4959770;28;20201;-71
2022/04/21 12:57:59;;;;;;;5.83;4.43;;;15.00;99.90;;;;;;4972782;28;20665;-70
2022/04/21 13:00:27;;;;;;;5.70;4.83;;;15.00;99.90;;;;;;4959803;28;20197;-70
2022/04/21 13:02:54;;;;;;;6.77;5.53;;;15.00;99.90;;;;;;4961312;28;20324;-72
2022/04/21 13:05:21;;;;;;;5.70;4.53;;;15.00;99.90;;;;;;4962218;28;21754;-70
2022/04/21 13:07:49;;;;;;;5.13;4.63;;;14.90;99.90;;;;;;4965406;28;20210;-71
2022/04/21 13:10:16;;;;;;;8.10;5.50;;;14.90;99.90;;;;;;4959347;28;20668;-70
2022/04/21 13:12:43;;;;;;;8.10;4.87;;;14.90;99.90;;;;;;4971084;28;20220;-71
2022/04/21 13:15:11;;;;;;;6.17;4.67;;;14.90;99.90;;;;;;4966695;28;20275;-70
2022/04/21 13:17:40;;;;;;;6.37;4.43;;;14.90;99.90;;;;;;4966495;28;20645;-73
2022/04/21 13:20:07;;;;;;;5.07;4.47;;;14.90;99.90;;;;;;4970255;28;20212;-72
2022/04/21 13:22:33;;;;;;;5.90;4.67;;;14.90;99.90;;;;;;4957951;28;20601;-72
2022/04/21 13:25:02;;;;;;;5.20;4.40;;;14.90;99.90;;;;;;4958310;28;20235;-71
2022/04/21 13:27:30;;;;;;;5.53;4.90;;;14.90;99.90;;;;;;4964759;28;20848;-72
2022/04/21 13:29:57;;;;;;;6.07;4.33;;;14.90;99.90;;;;;;4967881;28;20766;-71
2022/04/21 13:35:09;;;;;;;6.60;4.90;;;14.90;99.90;;;;;;4965143;28;20570;-72
2022/04/21 13:37:36;;;;;;;5.50;4.97;;;14.80;99.90;;;;;;4952389;28;20228;-71
2022/04/21 13:40:05;;;;;;;6.13;5.27;;;14.70;99.90;;;;;;4971516;28;20324;-72
2022/04/21 13:42:32;;;;;;;7.30;4.80;;;14.70;99.90;;;;;;4976261;28;20215;-71
2022/04/21 13:44:59;;;;;;;7.80;5.23;;;14.70;99.90;;;;;;4967442;28;20655;-71
2022/04/21 13:47:26;;;;;;;5.30;4.80;;;14.60;99.90;;;;;;4960679;28;20201;-70
2022/04/21 13:49:54;;;;;;;6.27;5.37;;;14.60;99.90;;;;;;4980511;28;20283;-70